Angola, Kansas
Current Conditions -  °F | °C
As of 8:52 AM on Friday 31 Oct 2014 (Local Time) from KCFV Reporting Station
Light Rain Light Rain  
Wind Chill: 34°   Ceiling: Unl
Heat Index: 43°   Visibility: 10mi
Dew Point: 33°   Wind: 21mph
Humidity: 68%   Direction: 350°N
Pressure: 30.41"   Gusts: 28mph
Location:  37.067°N, 95.5817°W
Report Text: KCFV 311352Z AUTO 35018G24KT 10SM -RA FEW024 06/01 A3041 RMK AO2 PK WND 35028/1316 SLP299 P0000 T00610006
Loading
Personal Weather Stations






























Interactive Weather Map
Tropical Storm Tracking
New forecast layout! Learn more

10-Day Weather Forecast

Advertisements
Track Severe Weather on mobile